Aérodrome de la Montagne Noire

LFMG · Upper Garonne, Occitanie, 法国

METAR的历史 LFMG · Aérodrome de la Montagne Noire

下面你可以看到过去几天的METARs。 选择年份以浏览从2007年开始的旧METAR。

2022年12月1日

时间 代码 天气 温度 能见度 天花板 METAR/SPECI
11:00
I
4 °C 8 km 500 ft 300° 300° 4 kt METAR LFCK 011000Z AUTO 30004KT 8000 OVC005 04/03 Q1021 NOSIG
10:30
L
4 °C 5 km 300 ft 320° 320° 5 kt METAR LFCK 010930Z AUTO 32005KT 5000 BR OVC003 04/03 Q1021 BECMG OVC006
10:00
L
4 °C 5 km 400 ft 300° 300° 4 kt METAR LFCK 010900Z AUTO 30004KT 270V330 5000 BR OVC004 04/03 Q1020 BECMG OVC006
09:30
I
4 °C 8 km 600 ft Var Var 2 kt METAR LFCK 010830Z AUTO VRB02KT 8000 OVC006 04/03 Q1020 BECMG BKN012
09:00
I
4 °C 8 km 700 ft Var Var 2 kt METAR LFCK 010800Z AUTO VRB02KT 8000 OVC007 04/03 Q1020 TEMPO 4000 BR OVC002
08:30
I
4 °C 8 km 600 ft Var Var 2 kt METAR LFCK 010730Z AUTO VRB02KT 8000 OVC006 04/03 Q1020 TEMPO 4000 BR OVC002
08:00
I
4 °C 9 km 500 ft 340° 340° 3 kt METAR LFCK 010700Z AUTO 34003KT 9000 OVC005 04/03 Q1020 TEMPO 4000 BR
07:30
I
3 °C 7 km 500 ft 340° 340° 4 kt METAR LFCK 010630Z AUTO 34004KT 310V010 7000 OVC005 03/03 Q1020 TEMPO 4000 BR
07:00
L
3 °C 6 km 400 ft 320° 320° 4 kt METAR LFCK 010600Z AUTO 32004KT 6000 OVC004 03/03 Q1019 TEMPO 4000 BR
06:30
L
4 °C 7 km 400 ft 320° 320° 3 kt METAR LFCK 010530Z AUTO 32003KT 7000 OVC004 04/03 Q1019 TEMPO 4000 BR
06:00
L
4 °C 7 km 400 ft 340° 340° 3 kt METAR LFCK 010500Z AUTO 34003KT 7000 OVC004 04/03 Q1019
05:30
I
4 °C 10 km+ 500 ft 010° 010° 3 kt METAR LFCK 010430Z AUTO 01003KT 9999 OVC005 04/03 Q1019
05:00
I
4 °C 10 km+ 600 ft 040° 040° 1 kt METAR LFCK 010400Z AUTO 04001KT 9999 OVC006 04/03 Q1019
04:30
I
4 °C 10 km+ 700 ft 150° 150° 2 kt METAR LFCK 010330Z AUTO 15002KT 9999 OVC007 04/03 Q1019
04:00
I
4 °C 10 km+ 700 ft 150° 150° 3 kt METAR LFCK 010300Z AUTO 15003KT 9999 OVC007 04/03 Q1019
03:30
I
4 °C 10 km+ 700 ft 140° 140° 3 kt METAR LFCK 010230Z AUTO 14003KT 9999 OVC007 04/03 Q1019
03:00
I
4 °C 10 km+ 600 ft Var Var 2 kt METAR LFCK 010200Z AUTO VRB02KT 9999 OVC006 04/03 Q1019
02:30
I
5 °C 10 km+ 700 ft 150° 150° 3 kt METAR LFCK 010130Z AUTO 15003KT 9999 OVC007 05/04 Q1019
02:00
I
5 °C 10 km+ 800 ft Var Var 2 kt METAR LFCK 010100Z AUTO VRB02KT 9999 OVC008 05/03 Q1019
01:30
I
5 °C 10 km+ 800 ft 110° 110° 1 kt METAR LFCK 010030Z AUTO 11001KT 9999 OVC008 05/04 Q1019
01:00
I
5 °C 10 km+ 800 ft Var Var 2 kt METAR LFCK 010000Z AUTO VRB02KT 9999 OVC008 05/04 Q1019
00:30
I
5 °C 10 km+ 800 ft Var Var 2 kt METAR LFCK 302330Z AUTO VRB02KT 9999 OVC008 05/04 Q1019
00:00
I
5 °C 10 km+ 800 ft Var Var 2 kt METAR LFCK 302300Z AUTO VRB02KT 9999 OVC008 05/04 Q1019

2022年11月30日

时间 代码 天气 温度 能见度 天花板 METAR/SPECI
23:30
I
5 °C 10 km+ 700 ft Var 000° 0 kt METAR LFCK 302230Z AUTO 00000KT 9999 OVC007 05/04 Q1019 BECMG 4000 BR OVC003
23:00
I
5 °C 9 km 700 ft Var 000° 0 kt METAR LFCK 302200Z AUTO 00000KT 9000 OVC007 05/04 Q1019 BECMG 4000 BR OVC003
22:30
I
5 °C 9 km 900 ft Var 000° 0 kt METAR LFCK 302130Z AUTO 00000KT 9000 OVC009 05/04 Q1019 BECMG 4000 BR OVC003
22:00
I
5 °C 10 km+ 800 ft 320° 320° 2 kt METAR LFCK 302100Z AUTO 32002KT 9999 OVC008 05/04 Q1019 BECMG 4000 BR OVC003
21:30
I
5 °C 10 km+ 900 ft 310° 310° 2 kt METAR LFCK 302030Z AUTO 31002KT 9999 OVC009 05/04 Q1019 BECMG 4000 BR OVC003
21:00
I
5 °C 10 km+ 800 ft 310° 310° 3 kt METAR LFCK 302000Z AUTO 31003KT 9999 OVC008 05/04 Q1019 NOSIG
20:30
I
5 °C 10 km+ 800 ft 210° 210° 2 kt METAR LFCK 301930Z AUTO 21002KT 9999 OVC008 05/04 Q1019 NOSIG
20:00
M
5 °C 10 km+ 1.000 ft 200° 200° 2 kt METAR LFCK 301900Z AUTO 20002KT 9999 OVC010 05/04 Q1019 NOSIG
19:30
M
5 °C 10 km+ 1.000 ft 190° 190° 3 kt METAR LFCK 301830Z AUTO 19003KT 9999 OVC010 05/04 Q1019 NOSIG
19:00
M
5 °C 10 km+ 1.000 ft 170° 170° 3 kt METAR LFCK 301800Z AUTO 17003KT 9999 OVC010 05/04 Q1018 NOSIG
18:30
M
5 °C 10 km+ 1.100 ft 150° 150° 3 kt METAR LFCK 301730Z AUTO 15003KT 9999 OVC011 05/04 Q1018 BECMG OVC007
18:00
M
5 °C 10 km+ 1.100 ft 180° 180° 3 kt METAR LFCK 301700Z AUTO 18003KT 9999 OVC011 05/04 Q1018 BECMG OVC007
17:30
M
5 °C 10 km+ 1.100 ft 160° 160° 3 kt METAR LFCK 301630Z AUTO 16003KT 9999 OVC011 05/04 Q1018 BECMG OVC007
17:00
M
5 °C 10 km+ 1.000 ft 190° 190° 4 kt METAR LFCK 301600Z AUTO 19004KT 9999 OVC010 05/04 Q1018 NOSIG
16:30
M
6 °C 10 km+ 1.100 ft Var Var 3 kt METAR LFCK 301530Z AUTO VRB03KT 9999 OVC011 06/04 Q1018 BECMG OVC007
16:00
M
6 °C 10 km+ 1.000 ft 230° 230° 3 kt METAR LFCK 301500Z AUTO 23003KT 190V250 9999 OVC010 06/04 Q1018 NOSIG
15:30
M
6 °C 10 km+ 1.000 ft Var Var 2 kt METAR LFCK 301430Z AUTO VRB02KT 9999 OVC010 06/03 Q1018 NOSIG
15:00
M
6 °C 10 km+ 1.100 ft Var Var 2 kt METAR LFCK 301400Z AUTO VRB02KT 9999 OVC011 06/03 Q1018 NOSIG
14:30
M
6 °C 10 km+ 1.000 ft Var Var 2 kt METAR LFCK 301330Z AUTO VRB02KT 9999 OVC010 06/03 Q1018 NOSIG
14:00
M
5 °C 10 km+ 1.000 ft Var Var 2 kt METAR LFCK 301300Z AUTO VRB02KT 9999 OVC010 05/03 Q1018 NOSIG
13:30
M
5 °C 10 km+ 1.000 ft 300° 300° 4 kt METAR LFCK 301230Z AUTO 30004KT 250V360 9999 OVC010 05/03 Q1019 NOSIG
13:00
I
5 °C 10 km+ 900 ft 300° 300° 3 kt METAR LFCK 301200Z AUTO 30003KT 250V350 9999 OVC009 05/03 Q1019 BECMG BKN011
12:30
I
5 °C 10 km+ 900 ft Var 000° 0 kt METAR LFCK 301130Z AUTO 00000KT 9999 OVC009 05/03 Q1019 BECMG BKN012
12:00
I
5 °C 10 km+ 900 ft Var Var 3 kt METAR LFCK 301100Z AUTO VRB03KT 9999 OVC009 05/03 Q1019 BECMG BKN012
11:30
I
5 °C 10 km+ 900 ft Var Var 3 kt METAR LFCK 301030Z AUTO VRB03KT 9999 OVC009 05/03 Q1019 BECMG BKN012
11:00
I
5 °C 10 km+ 900 ft 040° 040° 3 kt METAR LFCK 301000Z AUTO 04003KT 360V070 9999 OVC009 05/03 Q1020 BECMG BKN012
10:30
I
5 °C 10 km+ 800 ft Var Var 2 kt METAR LFCK 300930Z AUTO VRB02KT 9999 OVC008 05/03 Q1020 BECMG BKN012
10:00
I
4 °C 10 km+ 700 ft 050° 050° 4 kt METAR LFCK 300900Z AUTO 05004KT 9999 OVC007 04/03 Q1020 NOSIG
09:30
I
4 °C 10 km+ 700 ft 030° 030° 3 kt METAR LFCK 300830Z AUTO 03003KT 9999 OVC007 04/03 Q1020 BECMG BKN016
09:00
I
4 °C 10 km+ 800 ft 340° 340° 4 kt METAR LFCK 300800Z AUTO 34004KT 300V360 9999 OVC008 04/03 Q1019 TEMPO 4000 BR BECMG BKN016
08:30
I
4 °C 10 km+ 800 ft 360° 360° 3 kt METAR LFCK 300730Z AUTO 36003KT 9999 OVC008 04/03 Q1019 TEMPO 4000 BR BECMG BKN016
08:00
I
4 °C 10 km+ 900 ft 060° 060° 3 kt METAR LFCK 300700Z AUTO 06003KT 9999 OVC009 04/04 Q1019 TEMPO 4000 BR VV///
07:30
I
4 °C 10 km+ 800 ft 060° 060° 4 kt METAR LFCK 300630Z AUTO 06004KT 9999 OVC008 04/04 Q1019 TEMPO 4000 BR VV///
07:00
I
4 °C 10 km+ 800 ft 030° 030° 3 kt METAR LFCK 300600Z AUTO 03003KT 9999 OVC008 04/04 Q1019 TEMPO 0600 FG VV///
06:30
I
4 °C 10 km+ 900 ft 040° 040° 3 kt METAR LFCK 300530Z AUTO 04003KT 9999 OVC009 04/04 Q1020
06:00
M
4 °C 10 km+ 1.100 ft 060° 060° 3 kt METAR LFCK 300500Z AUTO 06003KT 9999 OVC011 04/04 Q1020
05:30
M
4 °C 10 km+ 1.000 ft 050° 050° 3 kt METAR LFCK 300430Z AUTO 05003KT 9999 OVC010 04/04 Q1020
05:00
M
4 °C 10 km+ 1.100 ft 040° 040° 2 kt METAR LFCK 300400Z AUTO 04002KT 9999 FEW005 OVC011 04/04 Q1020
04:30
I
4 °C 9 km 500 ft 050° 050° 3 kt METAR LFCK 300330Z AUTO 05003KT 9000 OVC005 04/04 Q1020
04:00
L
4 °C 8 km 400 ft 050° 050° 2 kt METAR LFCK 300300Z AUTO 05002KT 8000 BKN004 OVC012 04/04 Q1020
03:30
L
4 °C 6 km 300 ft 050° 050° 1 kt METAR LFCK 300230Z AUTO 05001KT 6000 BKN003 OVC012 04/04 Q1020
03:00
I
4 °C 3,8 km 1.300 ft Var Var 3 kt METAR LFCK 300200Z AUTO VRB03KT 3800 BR SCT002 OVC013 04/04 Q1020
02:30
L
4 °C 800 m - Var Var 2 kt METAR LFCK 300130Z AUTO VRB02KT 1200 0800 R14/1100U BCFG VV/// 04/04 Q1020
02:00
L
4 °C 550 m - 010° 010° 3 kt METAR LFCK 300100Z AUTO 01003KT 0600 0550 R14/0650D FG VV/// 04/04 Q1020
01:30
L
3 °C 550 m - 040° 040° 3 kt METAR LFCK 300030Z AUTO 04003KT 0600 0550 R14/0650N FG VV/// 03/03 Q1020
01:00
L
2 °C 550 m - 040° 040° 1 kt METAR LFCK 300000Z AUTO 04001KT 0650 0550 R14/0650D FG VV/// 02/02 Q1020
00:30
L
3 °C 750 m 1.400 ft Var 000° 0 kt METAR LFCK 292330Z AUTO 00000KT 1000 0750 R14/1000D BCFG OVC014 03/03 Q1020
00:00
I
5 °C 4,5 km 1.400 ft 270° 270° 3 kt METAR LFCK 292300Z AUTO 27003KT 4500 BR OVC014 05/05 Q1020

2022年11月29日

时间 代码 天气 温度 能见度 天花板 METAR/SPECI
23:30
L
4 °C 1,3 km 1.300 ft Var Var 2 kt METAR LFCK 292230Z AUTO VRB02KT 1300 R14/1300U BCFG OVC013 04/04 Q1020
23:00
L
3 °C 450 m 1.700 ft Var Var 3 kt METAR LFCK 292200Z AUTO VRB03KT 0800 0450 R14/0550N FG BKN017 03/03 Q1020 BECMG 0500 FG VV///
22:30
L
4 °C 500 m - Var Var 2 kt METAR LFCK 292130Z AUTO VRB02KT 0550 0500 R14/0600N FG NSC 04/04 Q1020 BECMG 1200 BR OVC002
22:00
L
5 °C 1,3 km - 280° 280° 3 kt METAR LFCK 292100Z AUTO 28003KT 1300 R14/1500U BR NSC 05/04 Q1020 BECMG 2000 BR OVC002
21:30
I
4 °C 1,7 km - Var Var 2 kt METAR LFCK 292030Z AUTO VRB02KT 1700 -RA BR NSC 04/04 Q1020 TEMPO 9999 NSW BECMG OVC002
21:00
V
6 °C 8 km - 270° 270° 4 kt METAR LFCK 292000Z AUTO 27004KT 8000 NSC 06/05 Q1020 BECMG BKN005
20:30
M
6 °C 7 km - Var Var 2 kt METAR LFCK 291930Z AUTO VRB02KT 7000 FEW026 06/05 Q1020 BECMG BKN005
20:00
V
7 °C 10 km+ 3.300 ft 320° 320° 5 kt METAR LFCK 291900Z AUTO 32005KT 9999 SCT025 BKN033 BKN040 07/06 Q1020 BECMG BKN005
19:30
V
7 °C 10 km+ 3.300 ft 300° 300° 3 kt METAR LFCK 291830Z AUTO 30003KT 9999 BKN033 OVC044 07/06 Q1020 BECMG BKN005
19:00
V
8 °C 10 km+ 4.500 ft 310° 310° 5 kt METAR LFCK 291800Z AUTO 31005KT 9999 FEW031 OVC045 08/06 Q1020 NOSIG
18:30
M
8 °C 10 km+ 2.700 ft 290° 290° 3 kt METAR LFCK 291730Z AUTO 29003KT 9999 BKN027 BKN048 08/06 Q1020 NOSIG
18:00
V
8 °C 10 km+ 5.000 ft 300° 300° 4 kt METAR LFCK 291700Z AUTO 30004KT 9999 SCT031 BKN050 08/06 Q1020 NOSIG
17:30
V
8 °C 10 km+ 3.400 ft 320° 320° 6 kt METAR LFCK 291630Z AUTO 32006KT 9999 BKN034 OVC045 08/06 Q1020 NOSIG
17:00
V
9 °C 10 km+ 3.900 ft 330° 330° 6 kt METAR LFCK 291600Z AUTO 33006KT 9999 BKN039 OVC046 09/06 Q1020 NOSIG
16:30
V
8 °C 10 km+ 4.900 ft 330° 330° 6 kt METAR LFCK 291530Z AUTO 33006KT 9999 FEW028 SCT036 BKN049 08/06 Q1019 NOSIG
16:00
V
9 °C 10 km+ 4.800 ft 300° 300° 6 kt METAR LFCK 291500Z AUTO 30006KT 9999 FEW031 SCT041 BKN048 09/06 Q1019 TEMPO SCT035TCU
15:30
V
9 °C 10 km+ 4.500 ft 310° 310° 9 kt METAR LFCK 291430Z AUTO 31009KT 9999 FEW037/// BKN045/// ///TCU 09/06 Q1019 NOSIG
15:00
V
9 °C 10 km+ 4.300 ft 310° 310° 7 kt METAR LFCK 291400Z AUTO 31007KT 9999 BKN043/// BKN054/// BKN068/// ///TCU 09/07 Q1019 TEMPO SCT013 BKN035
14:30
V
8 °C 10 km+ 3.600 ft 310° 310° 10 kt METAR LFCK 291330Z AUTO 31010KT 9999 -DZ FEW015/// BKN036/// OVC045/// ///TCU 08/06 Q1020 TEMPO SCT013 BKN035
14:00
M
9 °C 10 km+ 2.200 ft 320° 320° 9 kt METAR LFCK 291300Z AUTO 32009KT 9999 SCT013/// BKN022/// BKN036/// ///TCU 09/07 Q1020 BECMG SCT013 BKN035
13:30
V
9 °C 10 km+ 3.900 ft 330° 330° 9 kt METAR LFCK 291230Z AUTO 33009KT 9999 SCT011/// SCT031/// BKN039/// ///TCU 09/06 Q1020 BECMG SCT013 BKN035
13:00
M
9 °C 10 km+ 2.100 ft 330° 330° 10 kt METAR LFCK 291200Z AUTO 33010KT 9999 SCT012 BKN021 BKN032 09/07 Q1020 TEMPO BKN008
12:30
V
8 °C 10 km+ 4.400 ft 330° 330° 9 kt METAR LFCK 291130Z AUTO 33009KT 9999 FEW010 SCT037 BKN044 08/07 Q1020 TEMPO 3000 RADZ BECMG OVC014
12:00
I
8 °C 10 km+ 900 ft 340° 340° 9 kt METAR LFCK 291100Z AUTO 34009KT 9999 OVC009 08/07 Q1020 TEMPO 3000 RADZ
11:30
I
8 °C 10 km+ 800 ft 310° 310° 8 kt METAR LFCK 291030Z AUTO 31008KT 9999 BKN008 OVC013 08/07 Q1020 TEMPO 3000 RADZ
11:00
I
8 °C 10 km+ 900 ft 310° 310° 6 kt METAR LFCK 291000Z AUTO 31006KT 9999 BKN009/// OVC014/// ///TCU 08/07 Q1020 TEMPO 3000 RADZ BKN006

我们和第三方通过cookies跟踪您在我们网站上的互联网行为。如果你继续,我们认为你同意我们的饼干政策